createdAt,value
2022-10-22T00:02:27.582Z,101015.13
2022-10-22T00:04:56.962Z,101016.75
2022-10-22T00:07:23.846Z,101015.13
2022-10-22T00:09:50.195Z,101017.94
2022-10-22T00:12:16.986Z,101026.31
2022-10-22T00:14:43.925Z,101021.66
2022-10-22T00:17:11.683Z,101021.22
2022-10-22T00:19:38.989Z,101026.97
2022-10-22T00:22:05.815Z,101027.50
2022-10-22T00:24:33.854Z,101033.72
2022-10-22T00:27:00.577Z,101034.72
2022-10-22T00:29:27.087Z,101038.47
2022-10-22T00:31:53.479Z,101037.69
2022-10-22T00:34:22.182Z,101037.69
2022-10-22T00:36:49.359Z,101033.66
2022-10-22T00:39:17.259Z,101035.25
2022-10-22T00:41:45.155Z,101036.88
2022-10-22T00:44:49.509Z,101039.13
2022-10-22T00:47:17.821Z,101042.50
2022-10-22T00:49:46.646Z,101048.34
2022-10-22T00:52:14.085Z,101045.22
2022-10-22T00:54:42.149Z,101044.66
2022-10-22T00:57:09.267Z,101038.47
2022-10-22T00:59:37.206Z,101038.28
2022-10-22T01:02:03.931Z,101045.09
2022-10-22T01:04:30.303Z,101039.06
2022-10-22T01:06:56.765Z,101050.09
2022-10-22T01:09:33.701Z,101042.28
2022-10-22T01:12:18.294Z,101044.91
2022-10-22T01:14:56.444Z,101041.91
2022-10-22T01:18:10.492Z,101044.78
2022-10-22T01:21:09.625Z,101041.91
2022-10-22T01:23:58.517Z,101039.69
2022-10-22T01:26:43.590Z,101040.50
2022-10-22T01:29:22.124Z,101037.44
2022-10-22T01:31:55.035Z,101035.03
2022-10-22T01:34:24.262Z,101040.69
2022-10-22T01:36:52.861Z,101044.34
2022-10-22T01:39:20.372Z,101044.94
2022-10-22T01:41:46.956Z,101036.72
2022-10-22T01:47:44.517Z,101042.66
2022-10-22T01:50:29.682Z,101041.06
2022-10-22T01:53:25.177Z,101041.06
2022-10-22T01:56:19.599Z,101047.63
2022-10-22T01:59:26.934Z,101045.22
2022-10-22T02:02:18.082Z,101035.13
2022-10-22T02:04:50.605Z,101033.72
2022-10-22T02:07:22.791Z,101030.66
2022-10-22T02:09:52.460Z,101029.06
2022-10-22T02:12:21.389Z,101031.84
2022-10-22T02:14:49.265Z,101025.41
2022-10-22T02:17:19.889Z,101025.59
2022-10-22T02:20:00.762Z,101021.38
2022-10-22T02:22:27.976Z,101014.75
2022-10-22T02:24:54.613Z,101014.13
2022-10-22T02:27:43.518Z,101016.72
2022-10-22T02:30:18.826Z,101017.09
2022-10-22T02:33:00.114Z,101021.88
2022-10-22T02:35:28.582Z,101021.44
2022-10-22T02:37:57.907Z,101017.22
2022-10-22T02:40:25.334Z,101019.22
2022-10-22T02:42:53.010Z,101022.00
2022-10-22T02:45:20.107Z,101025.38
2022-10-22T02:47:47.111Z,101023.78
2022-10-22T02:50:13.785Z,101025.13
2022-10-22T02:52:40.382Z,101024.31
2022-10-22T02:55:07.763Z,101029.72
2022-10-22T02:57:34.369Z,101029.09
2022-10-22T03:00:00.725Z,101033.66
2022-10-22T03:02:27.052Z,101023.63
2022-10-22T03:04:53.390Z,101037.44
2022-10-22T03:07:19.752Z,101040.22
2022-10-22T03:09:46.522Z,101040.22
2022-10-22T03:12:12.883Z,101036.19
2022-10-22T03:14:39.217Z,101040.59
2022-10-22T03:17:05.680Z,101035.41
2022-10-22T03:19:32.204Z,101032.03
2022-10-22T03:22:05.412Z,101041.84
2022-10-22T03:24:38.338Z,101045.41
2022-10-22T03:27:04.667Z,101048.41
2022-10-22T03:29:34.439Z,101048.41
2022-10-22T03:32:00.816Z,101044.38
2022-10-22T03:34:27.228Z,101042.56
2022-10-22T03:36:54.857Z,101040.31
2022-10-22T03:39:21.986Z,101049.94
2022-10-22T03:41:50.140Z,101045.69
2022-10-22T03:44:18.119Z,101049.94
2022-10-22T03:46:44.688Z,101043.75
2022-10-22T03:49:11.079Z,101051.56
2022-10-22T03:51:37.450Z,101048.94
2022-10-22T03:54:04.124Z,101061.41
2022-10-22T03:56:30.821Z,101056.47
2022-10-22T03:58:59.052Z,101062.47
2022-10-22T04:01:26.414Z,101057.63
2022-10-22T04:03:53.551Z,101062.81
2022-10-22T04:06:19.942Z,101069.84
2022-10-22T04:08:46.543Z,101061.03
2022-10-22T04:11:13.959Z,101068.66
2022-10-22T04:13:40.316Z,101062.91
2022-10-22T04:16:13.873Z,101069.13
2022-10-22T04:18:40.935Z,101066.50
2022-10-22T04:21:09.793Z,101072.34
2022-10-22T04:23:36.733Z,101068.47
2022-10-22T04:26:08.008Z,101067.50
2022-10-22T04:28:35.376Z,101069.38
2022-10-22T04:31:10.860Z,101076.91
2022-10-22T04:33:37.608Z,101079.88
2022-10-22T04:36:09.648Z,101083.47
2022-10-22T04:38:36.036Z,101080.50
2022-10-22T04:41:17.928Z,101074.94
2022-10-22T04:43:44.611Z,101084.53
2022-10-22T04:46:12.899Z,101077.59
2022-10-22T04:48:41.396Z,101082.03
2022-10-22T04:51:10.227Z,101077.44
2022-10-22T04:53:36.851Z,101086.84
2022-10-22T04:56:11.762Z,101085.25
2022-10-22T04:58:38.477Z,101083.06
2022-10-22T05:01:17.504Z,101091.69
2022-10-22T05:03:45.102Z,101096.34
2022-10-22T05:08:44.296Z,101089.53
2022-10-22T05:11:16.494Z,101090.16
2022-10-22T05:13:42.897Z,101090.94
2022-10-22T05:16:09.712Z,101089.34
2022-10-22T05:18:37.571Z,101096.16
2022-10-22T05:21:07.791Z,101094.75
2022-10-22T05:23:34.112Z,101098.69
2022-10-22T05:26:05.523Z,101096.25
2022-10-22T05:28:32.823Z,101097.25
2022-10-22T05:31:00.859Z,101098.59
2022-10-22T05:33:28.843Z,101103.19
2022-10-22T05:35:55.495Z,101097.72
2022-10-22T05:38:22.199Z,101099.75
2022-10-22T05:40:48.760Z,101094.13
2022-10-22T05:43:15.095Z,101103.91
2022-10-22T05:45:43.339Z,101110.91
2022-10-22T05:48:09.778Z,101106.06
2022-10-22T05:50:37.333Z,101110.84
2022-10-22T05:53:07.175Z,101112.00
2022-10-22T05:55:38.760Z,101118.34
2022-10-22T05:58:05.212Z,101118.19
2022-10-22T06:00:31.645Z,101118.34
2022-10-22T06:02:57.973Z,101122.94
2022-10-22T06:05:24.347Z,101128.75
2022-10-22T06:07:50.747Z,101118.34
2022-10-22T06:10:19.511Z,101137.22
2022-10-22T06:12:49.595Z,101134.25
2022-10-22T06:15:18.173Z,101138.44
2022-10-22T06:17:45.497Z,101146.88
2022-10-22T06:20:12.346Z,101147.53
2022-10-22T06:22:39.280Z,101152.91
2022-10-22T06:25:08.174Z,101154.69
2022-10-22T06:27:35.240Z,101150.47
2022-10-22T06:30:01.653Z,101160.53
2022-10-22T06:32:27.981Z,101162.13
2022-10-22T06:34:54.322Z,101169.56
2022-10-22T06:37:20.685Z,101167.41
2022-10-22T06:39:47.015Z,101173.09
2022-10-22T06:42:13.439Z,101178.09
2022-10-22T06:44:39.786Z,101181.50
2022-10-22T06:47:06.119Z,101178.72
2022-10-22T06:49:32.564Z,101192.81
2022-10-22T06:51:58.984Z,101191.00
2022-10-22T06:54:25.367Z,101193.25
2022-10-22T06:56:51.722Z,101205.81
2022-10-22T06:59:18.062Z,101204.03
2022-10-22T07:01:44.446Z,101207.88
2022-10-22T07:04:11.251Z,101200.34
2022-10-22T07:06:37.625Z,101208.25
2022-10-22T07:09:04.384Z,101208.69
2022-10-22T07:11:39.002Z,101211.38
2022-10-22T07:14:05.351Z,101214.69
2022-10-22T07:16:32.584Z,101219.16
2022-10-22T07:19:00.504Z,101218.59
2022-10-22T07:21:26.883Z,101222.28
2022-10-22T07:23:53.246Z,101224.34
2022-10-22T07:26:24.781Z,101233.56
2022-10-22T07:28:51.588Z,101223.56
2022-10-22T07:31:18.600Z,101235.06
2022-10-22T07:33:45.517Z,101232.16
2022-10-22T07:36:17.528Z,101236.66
2022-10-22T07:38:45.968Z,101242.09
2022-10-22T07:41:12.453Z,101239.91
2022-10-22T07:43:38.816Z,101244.03
2022-10-22T07:46:05.367Z,101242.28
2022-10-22T07:48:31.710Z,101243.38
2022-10-22T07:50:58.332Z,101261.78
2022-10-22T07:53:24.696Z,101255.56
2022-10-22T07:55:51.796Z,101254.28
2022-10-22T07:58:19.929Z,101252.75
2022-10-22T08:00:47.058Z,101259.38
2022-10-22T08:03:15.296Z,101263.22
2022-10-22T08:05:43.752Z,101265.88
2022-10-22T08:08:11.397Z,101264.28
2022-10-22T08:10:37.895Z,101276.16
2022-10-22T08:13:04.367Z,101276.56
2022-10-22T08:15:31.090Z,101272.00
2022-10-22T08:17:57.515Z,101280.25
2022-10-22T08:20:24.016Z,101280.47
2022-10-22T08:22:50.534Z,101284.09
2022-10-22T08:25:18.173Z,101288.31
2022-10-22T08:27:45.449Z,101291.72
2022-10-22T08:30:13.476Z,101295.78
2022-10-22T08:32:40.684Z,101293.38
2022-10-22T08:35:07.324Z,101302.44
2022-10-22T08:37:33.777Z,101301.03
2022-10-22T08:40:00.119Z,101311.69
2022-10-22T08:43:02.909Z,101303.47
2022-10-22T08:45:32.736Z,101310.13
2022-10-22T08:48:10.462Z,101304.69
2022-10-22T08:50:44.090Z,101317.78
2022-10-22T08:53:17.352Z,101314.97
2022-10-22T08:55:44.868Z,101321.41
2022-10-22T08:58:22.575Z,101326.06
2022-10-22T09:01:05.878Z,101323.88
2022-10-22T09:03:44.857Z,101325.50
2022-10-22T09:06:15.714Z,101327.72
2022-10-22T09:08:44.713Z,101331.59
2022-10-22T09:11:11.016Z,101330.16
2022-10-22T09:13:38.400Z,101340.03
2022-10-22T09:16:13.860Z,101336.22
2022-10-22T09:18:59.539Z,101343.69
2022-10-22T09:21:34.369Z,101344.28
2022-10-22T09:24:11.208Z,101352.75
2022-10-22T09:26:40.648Z,101352.34
2022-10-22T09:29:07.768Z,101347.53
2022-10-22T09:31:34.629Z,101354.38
2022-10-22T09:34:06.061Z,101357.59
2022-10-22T09:36:33.175Z,101365.03
2022-10-22T09:38:59.970Z,101357.16
2022-10-22T09:41:31.800Z,101361.94
2022-10-22T09:43:59.244Z,101365.13
2022-10-22T09:46:30.089Z,101364.31
2022-10-22T09:49:10.078Z,101360.50
2022-10-22T09:51:39.221Z,101359.72
2022-10-22T09:54:16.445Z,101374.66
2022-10-22T09:56:50.562Z,101370.41
2022-10-22T09:59:18.518Z,101382.31
2022-10-22T10:01:45.304Z,101387.72
2022-10-22T10:04:16.654Z,101382.44
2022-10-22T10:06:45.049Z,101397.19
2022-10-22T10:09:16.633Z,101406.63
2022-10-22T10:11:49.137Z,101393.16
2022-10-22T10:14:35.945Z,101401.06
2022-10-22T10:17:13.415Z,101408.50
2022-10-22T10:19:59.966Z,101404.84
2022-10-22T10:22:44.772Z,101397.25
2022-10-22T10:25:28.383Z,101402.84
2022-10-22T10:28:02.699Z,101408.88
2022-10-22T10:30:30.898Z,101424.63
2022-10-22T10:33:18.842Z,101423.22
2022-10-22T10:35:58.600Z,101419.63
2022-10-22T10:38:53.407Z,101427.31
2022-10-22T10:41:34.662Z,101428.09
2022-10-22T10:44:34.778Z,101426.41
2022-10-22T10:47:16.330Z,101428.78
2022-10-22T10:49:43.399Z,101434.13
2022-10-22T10:52:36.451Z,101432.19
2022-10-22T10:55:33.638Z,101438.63
2022-10-22T10:58:23.267Z,101443.94
2022-10-22T11:01:02.892Z,101445.72
2022-10-22T11:03:46.010Z,101436.59
2022-10-22T11:06:16.121Z,101437.19
2022-10-22T11:08:54.664Z,101442.00
2022-10-22T11:11:34.567Z,101443.06
2022-10-22T11:14:19.142Z,101446.22
2022-10-22T11:16:53.071Z,101447.91
2022-10-22T11:19:49.669Z,101455.91
2022-10-22T11:22:28.395Z,101459.75
2022-10-22T11:25:13.085Z,101452.59
2022-10-22T11:27:47.555Z,101463.19
2022-10-22T11:30:17.161Z,101464.09
2022-10-22T11:32:48.444Z,101461.44
2022-10-22T11:35:23.546Z,101459.69
2022-10-22T11:37:54.816Z,101465.41
2022-10-22T11:40:35.784Z,101453.28
2022-10-22T11:43:07.965Z,101465.34
2022-10-22T11:45:42.865Z,101465.63
2022-10-22T11:48:19.299Z,101468.25
2022-10-22T11:50:52.913Z,101462.50
2022-10-22T11:53:25.312Z,101458.31
2022-10-22T11:56:27.885Z,101474.03
2022-10-22T11:58:55.695Z,101471.28
2022-10-22T12:01:28.321Z,101474.59
2022-10-22T12:04:15.980Z,101472.75
2022-10-22T12:07:00.859Z,101470.72
2022-10-22T12:09:31.950Z,101474.25
2022-10-22T12:12:04.629Z,101472.78
2022-10-22T12:14:41.607Z,101477.97
2022-10-22T12:17:14.632Z,101474.38
2022-10-22T12:19:44.134Z,101477.88
2022-10-22T12:22:14.741Z,101477.66
2022-10-22T12:24:44.874Z,101483.78
2022-10-22T12:27:33.869Z,101483.59
2022-10-22T12:30:01.593Z,101476.59
2022-10-22T12:32:37.277Z,101481.03
2022-10-22T12:35:08.435Z,101481.63
2022-10-22T12:37:37.117Z,101486.06
2022-10-22T12:40:27.033Z,101483.78
2022-10-22T12:42:58.979Z,101487.06
2022-10-22T12:45:31.181Z,101494.22
2022-10-22T12:48:04.607Z,101478.13
2022-10-22T12:50:59.768Z,101488.09
2022-10-22T12:53:28.072Z,101485.28
2022-10-22T12:55:57.608Z,101471.84
2022-10-22T12:58:32.324Z,101476.66
2022-10-22T13:01:02.064Z,101480.47
2022-10-22T13:03:40.381Z,101478.63
2022-10-22T13:06:18.886Z,101480.03
2022-10-22T13:08:57.452Z,101483.97
2022-10-22T13:11:23.877Z,101481.94
2022-10-22T13:13:50.259Z,101471.72
2022-10-22T13:16:24.300Z,101475.66
2022-10-22T13:18:52.947Z,101481.63
2022-10-22T13:21:32.587Z,101480.00
2022-10-22T13:24:01.449Z,101474.03
2022-10-22T13:26:34.321Z,101480.13
2022-10-22T13:29:02.580Z,101478.28
2022-10-22T13:31:33.424Z,101478.72
2022-10-22T13:34:09.821Z,101484.41
2022-10-22T13:36:38.323Z,101471.63
2022-10-22T13:39:08.006Z,101483.34
2022-10-22T13:44:06.349Z,101485.69
2022-10-22T13:46:32.820Z,101481.81
2022-10-22T13:49:00.335Z,101483.28
2022-10-22T13:51:37.137Z,101487.34
2022-10-22T13:54:09.423Z,101494.28
2022-10-22T13:56:35.752Z,101493.72
2022-10-22T13:59:02.104Z,101506.13
2022-10-22T14:01:28.512Z,101505.63
2022-10-22T14:03:57.995Z,101495.78
2022-10-22T14:06:28.561Z,101492.63
2022-10-22T14:08:58.600Z,101497.72
2022-10-22T14:11:27.261Z,101499.13
2022-10-22T14:13:54.386Z,101501.72
2022-10-22T14:16:24.312Z,101503.09
2022-10-22T14:18:51.413Z,101505.94
2022-10-22T14:21:18.755Z,101506.75
2022-10-22T14:23:47.271Z,101501.91
2022-10-22T14:26:28.103Z,101497.09
2022-10-22T14:29:10.995Z,101509.44
2022-10-22T14:31:44.051Z,101507.63
2022-10-22T14:34:13.398Z,101510.06
2022-10-22T14:36:39.820Z,101509.63
2022-10-22T14:39:06.227Z,101511.47
2022-10-22T14:41:32.630Z,101517.56
2022-10-22T14:43:59.791Z,101514.97
2022-10-22T14:46:26.253Z,101521.44
2022-10-22T14:48:52.629Z,101527.72
2022-10-22T14:51:21.080Z,101533.56
2022-10-22T14:53:47.961Z,101527.09
2022-10-22T14:56:16.756Z,101531.94
2022-10-22T14:58:43.458Z,101531.94
2022-10-22T15:01:10.078Z,101529.94
2022-10-22T15:03:36.598Z,101537.19
2022-10-22T15:06:04.040Z,101541.41
2022-10-22T15:08:30.463Z,101537.97
2022-10-22T15:10:58.766Z,101538.38
2022-10-22T15:13:25.166Z,101536.78
2022-10-22T15:15:52.460Z,101538.88
2022-10-22T15:18:20.676Z,101536.06
2022-10-22T15:20:54.973Z,101547.75
2022-10-22T15:23:21.320Z,101551.38
2022-10-22T15:25:47.682Z,101551.78
2022-10-22T15:28:16.577Z,101557.06
2022-10-22T15:30:43.035Z,101554.25
2022-10-22T15:33:09.379Z,101555.69
2022-10-22T15:35:35.790Z,101554.66
2022-10-22T15:38:02.348Z,101557.91
2022-10-22T15:40:28.679Z,101562.97
2022-10-22T15:42:55.106Z,101563.97
2022-10-22T15:45:22.408Z,101563.19
2022-10-22T15:47:49.264Z,101569.22
2022-10-22T15:50:16.396Z,101562.16
2022-10-22T15:52:42.924Z,101561.38
2022-10-22T15:55:10.549Z,101567.59
2022-10-22T15:57:37.912Z,101568.00
2022-10-22T16:00:06.082Z,101564.16
2022-10-22T16:02:32.431Z,101562.72
2022-10-22T16:04:58.857Z,101564.88
2022-10-22T16:07:26.381Z,101572.53
2022-10-22T16:09:58.254Z,101567.66
2022-10-22T16:12:24.641Z,101563.78
2022-10-22T16:14:51.207Z,101571.63
2022-10-22T16:17:18.234Z,101573.81
2022-10-22T16:19:44.607Z,101569.72
2022-10-22T16:22:13.679Z,101573.31
2022-10-22T16:24:42.993Z,101573.66
2022-10-22T16:27:10.152Z,101576.41
2022-10-22T16:29:40.025Z,101575.16
2022-10-22T16:32:06.530Z,101580.34
2022-10-22T16:34:32.931Z,101581.09
2022-10-22T16:36:59.324Z,101580.41
2022-10-22T16:39:25.699Z,101580.97
2022-10-22T16:41:52.049Z,101586.97
2022-10-22T16:44:18.463Z,101579.06
2022-10-22T16:46:44.885Z,101587.66
2022-10-22T16:49:11.626Z,101591.81
2022-10-22T16:51:39.204Z,101592.38
2022-10-22T16:54:08.330Z,101596.56
2022-10-22T16:56:37.810Z,101592.69
2022-10-22T16:59:04.196Z,101592.09
2022-10-22T17:01:30.710Z,101596.88
2022-10-22T17:04:00.568Z,101592.56
2022-10-22T17:06:27.356Z,101591.63
2022-10-22T17:08:53.892Z,101587.34
2022-10-22T17:11:23.201Z,101599.31
2022-10-22T17:13:52.543Z,101600.22
2022-10-22T17:16:21.872Z,101602.94
2022-10-22T17:18:48.286Z,101602.25
2022-10-22T17:21:15.598Z,101602.31
2022-10-22T17:23:42.680Z,101603.84
2022-10-22T17:26:22.677Z,101607.00
2022-10-22T17:28:49.451Z,101604.13
2022-10-22T17:31:17.907Z,101610.69
2022-10-22T17:33:45.301Z,101612.03
2022-10-22T17:36:12.962Z,101629.03
2022-10-22T17:38:41.646Z,101630.56
2022-10-22T17:41:11.467Z,101624.19
2022-10-22T17:43:40.904Z,101623.25
2022-10-22T17:46:10.708Z,101624.31
2022-10-22T17:48:37.353Z,101626.47
2022-10-22T17:51:11.296Z,101628.44
2022-10-22T17:53:42.822Z,101630.50
2022-10-22T17:56:10.316Z,101632.78
2022-10-22T17:58:37.385Z,101635.59
2022-10-22T18:01:04.695Z,101623.72
2022-10-22T18:03:32.537Z,101613.81
2022-10-22T18:06:07.240Z,101620.06
2022-10-22T18:08:33.678Z,101623.22
2022-10-22T18:11:00.356Z,101627.94
2022-10-22T18:13:26.723Z,101632.69
2022-10-22T18:15:56.683Z,101636.75
2022-10-22T18:18:23.850Z,101639.53
2022-10-22T18:20:51.566Z,101642.31
2022-10-22T18:23:19.139Z,101641.84
2022-10-22T18:25:48.073Z,101633.38
2022-10-22T18:28:16.283Z,101635.53
2022-10-22T18:30:44.553Z,101633.59
2022-10-22T18:33:12.499Z,101636.38
2022-10-22T18:35:41.227Z,101635.44
2022-10-22T18:38:08.554Z,101643.75
2022-10-22T18:40:36.001Z,101642.63
2022-10-22T18:43:03.463Z,101640.38
2022-10-22T18:45:29.968Z,101642.50
2022-10-22T18:47:56.315Z,101642.84
2022-10-22T18:50:22.741Z,101646.59
2022-10-22T18:52:49.110Z,101657.00
2022-10-22T18:55:15.535Z,101656.38
2022-10-22T18:57:41.863Z,101655.41
2022-10-22T19:00:08.819Z,101652.34
2022-10-22T19:02:35.280Z,101657.72
2022-10-22T19:05:01.636Z,101651.53
2022-10-22T19:07:27.985Z,101650.06
2022-10-22T19:09:54.320Z,101645.03
2022-10-22T19:12:21.619Z,101638.38
2022-10-22T19:14:48.842Z,101634.50
2022-10-22T19:17:15.303Z,101631.09
2022-10-22T19:19:41.650Z,101632.06
2022-10-22T19:22:07.987Z,101629.47
2022-10-22T19:24:34.500Z,101626.88
2022-10-22T19:27:00.917Z,101628.88
2022-10-22T19:29:27.292Z,101627.59
2022-10-22T19:31:53.857Z,101622.88
2022-10-22T19:34:20.588Z,101630.84
2022-10-22T19:36:47.268Z,101623.03
2022-10-22T19:39:17.643Z,101624.38
2022-10-22T19:41:44.236Z,101621.94
2022-10-22T19:44:10.967Z,101623.88
2022-10-22T19:46:37.460Z,101631.03
2022-10-22T19:49:04.512Z,101624.06
2022-10-22T19:51:33.728Z,101622.59
2022-10-22T19:54:02.902Z,101620.47
2022-10-22T19:56:30.023Z,101621.81
2022-10-22T19:58:56.620Z,101632.53
2022-10-22T20:01:23.549Z,101636.44
2022-10-22T20:03:50.007Z,101632.19
2022-10-22T20:06:17.750Z,101632.19
2022-10-22T20:08:44.738Z,101628.94
2022-10-22T20:11:17.657Z,101640.66
2022-10-22T20:13:46.696Z,101632.38
2022-10-22T20:16:17.943Z,101639.69
2022-10-22T20:18:44.435Z,101638.72
2022-10-22T20:21:15.396Z,101638.41
2022-10-22T20:23:42.858Z,101633.53
2022-10-22T20:26:09.459Z,101633.53
2022-10-22T20:28:36.722Z,101637.75
2022-10-22T20:31:19.727Z,101643.75
2022-10-22T20:33:47.833Z,101637.75
2022-10-22T20:36:18.329Z,101641.50
2022-10-22T20:38:47.802Z,101638.06
2022-10-22T20:41:17.753Z,101639.84
2022-10-22T20:43:45.610Z,101635.97
2022-10-22T20:46:19.739Z,101633.84
2022-10-22T20:48:46.671Z,101636.94
2022-10-22T20:51:13.299Z,101638.06
2022-10-22T20:53:39.653Z,101640.97
2022-10-22T20:56:06.859Z,101648.75
2022-10-22T20:58:33.639Z,101646.63
2022-10-22T21:01:09.261Z,101643.53
2022-10-22T21:03:38.827Z,101641.25
2022-10-22T21:06:06.238Z,101646.75
2022-10-22T21:08:32.761Z,101644.50
2022-10-22T21:10:59.239Z,101642.88
2022-10-22T21:13:25.610Z,101643.84
2022-10-22T21:15:51.958Z,101641.25
2022-10-22T21:18:18.331Z,101635.25
2022-10-22T21:20:44.671Z,101640.28
2022-10-22T21:23:11.219Z,101642.72
2022-10-22T21:25:40.816Z,101644.84
2022-10-22T21:28:09.684Z,101643.69
2022-10-22T21:30:36.065Z,101651.00
2022-10-22T21:33:02.430Z,101644.88
2022-10-22T21:35:28.815Z,101654.13
2022-10-22T21:37:55.156Z,101648.75
2022-10-22T21:40:21.846Z,101650.41
2022-10-22T21:42:50.209Z,101645.53
2022-10-22T21:45:19.993Z,101643.88
2022-10-22T21:47:47.968Z,101641.13
2022-10-22T21:50:14.388Z,101641.28
2022-10-22T21:52:40.813Z,101647.47
2022-10-22T21:55:07.496Z,101651.69
2022-10-22T21:57:33.843Z,101655.59
2022-10-22T22:00:00.194Z,101657.06
2022-10-22T22:02:28.533Z,101655.91
2022-10-22T22:04:54.951Z,101649.91
2022-10-22T22:07:22.148Z,101652.69
2022-10-22T22:09:51.876Z,101658.84
2022-10-22T22:12:20.428Z,101657.56
2022-10-22T22:14:47.303Z,101657.88
2022-10-22T22:17:15.373Z,101652.97
2022-10-22T22:19:42.367Z,101649.72
2022-10-22T22:22:08.736Z,101647.59
2022-10-22T22:24:35.085Z,101643.69
2022-10-22T22:27:01.480Z,101639.31
2022-10-22T22:29:27.823Z,101636.72
2022-10-22T22:31:54.276Z,101636.72
2022-10-22T22:34:20.623Z,101624.53
2022-10-22T22:36:47.981Z,101626.81
2022-10-22T22:39:17.631Z,101631.84
2022-10-22T22:41:44.279Z,101627.63
2022-10-22T22:44:10.648Z,101622.75
2022-10-22T22:46:37.032Z,101618.88
2022-10-22T22:49:03.633Z,101623.06
2022-10-22T22:51:30.883Z,101618.88
2022-10-22T22:53:58.795Z,101619.19
2022-10-22T22:56:27.616Z,101619.34
2022-10-22T22:58:54.697Z,101614.16
2022-10-22T23:01:29.723Z,101608.63
2022-10-22T23:04:03.983Z,101613.84
2022-10-22T23:06:33.626Z,101617.88
2022-10-22T23:09:00.517Z,101613.00
2022-10-22T23:11:27.778Z,101607.66
2022-10-22T23:13:56.766Z,101609.28
2022-10-22T23:16:25.554Z,101604.09
2022-10-22T23:18:54.470Z,101593.06
2022-10-22T23:21:29.593Z,101586.41
2022-10-22T23:23:58.416Z,101600.22
2022-10-22T23:26:27.791Z,101595.81
2022-10-22T23:28:54.475Z,101597.78
2022-10-22T23:31:21.827Z,101588.34
2022-10-22T23:33:48.475Z,101587.72
2022-10-22T23:36:15.010Z,101591.25
2022-10-22T23:38:42.030Z,101590.47
2022-10-22T23:41:09.390Z,101612.03
2022-10-22T23:43:36.215Z,101603.44
2022-10-22T23:46:04.332Z,101599.06
2022-10-22T23:48:30.745Z,101599.22
2022-10-22T23:50:57.256Z,101591.59
2022-10-22T23:53:23.815Z,101578.91
2022-10-22T23:55:50.408Z,101569.16
2022-10-22T23:58:17.218Z,101577.94
